Time;durP1;ratioP1;P1;durP2;ratioP2;P2;SDS_P1;SDS_P2;PMS_P1;PMS_P2;Temp;Humidity;BMP_temperature;BMP_pressure;BME280_temperature;BME280_humidity;BME280_pressure;Samples;Min_cycle;Max_cycle;Signal;HPM_P1;HPM_P2
2022/03/21 00:00:51;;;;;;;42.13;18.60;;;;;;;-0.85;45.29;103530.49;1793990;80;26080;-56
2022/03/21 00:03:21;;;;;;;38.80;18.48;;;;;;;-0.87;45.49;103525.63;1793570;80;25500;-57
2022/03/21 00:05:48;;;;;;;38.95;19.15;;;;;;;-0.89;45.29;103532.66;1793934;80;27567;-58
2022/03/21 00:08:18;;;;;;;32.73;17.48;;;;;;;-0.93;45.52;103528.68;1793749;80;25796;-57
2022/03/21 00:10:46;;;;;;;45.60;18.30;;;;;;;-0.97;45.53;103526.05;1793877;80;25781;-57
2022/03/21 00:13:15;;;;;;;40.55;19.45;;;;;;;-0.96;45.51;103521.21;1793743;80;26169;-57
2022/03/21 00:15:48;;;;;;;40.03;18.57;;;;;;;-0.97;45.27;103523.41;1793721;80;25457;-58
2022/03/21 00:18:16;;;;;;;39.83;18.52;;;;;;;-0.95;45.04;103530.01;1793819;80;27607;-58
2022/03/21 00:20:46;;;;;;;42.55;18.82;;;;;;;-0.93;45.24;103524.72;1793467;80;25737;-58
2022/03/21 00:23:14;;;;;;;36.48;18.95;;;;;;;-0.94;45.13;103530.45;1793844;80;25461;-58
2022/03/21 00:25:41;;;;;;;43.50;20.00;;;;;;;-0.98;45.15;103528.23;1771589;80;26349;-58
2022/03/21 00:28:09;;;;;;;44.08;19.57;;;;;;;-1.04;45.29;103527.32;1813783;79;25792;-58
2022/03/21 00:30:39;;;;;;;43.87;20.17;;;;;;;-1.09;45.31;103523.79;1813800;79;27461;-58
2022/03/21 00:33:06;;;;;;;44.13;20.57;;;;;;;-1.09;45.61;103538.32;1813861;79;25776;-58
2022/03/21 00:35:34;;;;;;;45.58;20.08;;;;;;;-1.18;45.49;103533.86;1814009;78;25773;-57
2022/03/21 00:38:03;;;;;;;46.83;19.48;;;;;;;-1.21;45.77;103533.41;1813864;79;25710;-57
2022/03/21 00:40:30;;;;;;;45.43;19.55;;;;;;;-1.24;45.93;103528.55;1814019;77;25837;-57
2022/03/21 00:42:58;;;;;;;41.45;19.00;;;;;;;-1.24;45.88;103521.95;1813762;79;29531;-57
2022/03/21 00:45:25;;;;;;;41.02;18.80;;;;;;;-1.24;46.09;103519.30;1813737;78;25729;-58
2022/03/21 00:47:54;;;;;;;38.25;18.60;;;;;;;-1.27;46.25;103521.50;1813887;79;25688;-58
2022/03/21 00:50:24;;;;;;;38.90;20.32;;;;;;;-1.33;46.24;103518.38;1784697;77;25836;-58
2022/03/21 00:52:54;;;;;;;37.23;18.75;;;;;;;-1.36;46.27;103513.08;1813739;78;25749;-57
2022/03/21 00:55:33;;;;;;;41.73;20.62;;;;;;;-1.34;46.31;103514.39;1825773;78;28109;-58
2022/03/21 00:57:58;;;;;;;42.65;19.77;;;;;;;-1.34;46.54;103517.94;1798286;78;25741;-57
2022/03/21 01:00:28;;;;;;;33.13;18.02;;;;;;;-1.36;46.26;103513.08;1799732;79;25753;-58
2022/03/21 01:02:58;;;;;;;44.90;19.85;;;;;;;-1.38;46.17;103512.62;1799313;79;25770;-58
2022/03/21 01:05:26;;;;;;;49.77;21.30;;;;;;;-1.44;46.25;103509.09;1799686;79;25778;-57
2022/03/21 01:07:53;;;;;;;38.67;18.50;;;;;;;-1.50;46.18;103506.39;1799048;79;28470;-57
2022/03/21 01:10:22;;;;;;;41.95;21.10;;;;;;;-1.48;46.17;103504.65;1799254;79;25634;-57
2022/03/21 01:12:50;;;;;;;39.78;20.48;;;;;;;-1.44;46.24;103502.48;1799249;79;25772;-57
2022/03/21 01:15:20;;;;;;;41.55;19.12;;;;;;;-1.45;46.53;103508.64;1799544;79;25477;-57
2022/03/21 01:17:48;;;;;;;42.20;20.27;;;;;;;-1.46;46.51;103506.88;1799540;79;25460;-57
2022/03/21 01:20:18;;;;;;;40.85;19.75;;;;;;;-1.44;46.51;103508.19;1799533;79;27601;-57
2022/03/21 01:22:46;;;;;;;40.92;19.80;;;;;;;-1.46;46.55;103508.19;1799214;79;25982;-57
2022/03/21 01:28:30;;;;;;;40.33;18.87;;;;;;;-1.55;46.88;103508.55;1744084;80;25747;-57
2022/03/21 01:30:55;;;;;;;38.73;19.90;;;;;;;-1.62;46.95;103503.69;1730916;82;25823;-57
2022/03/21 01:33:20;;;;;;;33.13;17.65;;;;;;;-1.63;47.01;103499.28;1741443;80;25710;-57
2022/03/21 01:35:47;;;;;;;35.75;17.27;;;;;;;-1.62;47.31;103507.66;1744861;80;25945;-58
2022/03/21 01:38:14;;;;;;;38.10;18.35;;;;;;;-1.62;47.36;103499.28;1777884;80;25707;-57
2022/03/21 01:40:41;;;;;;;38.65;17.48;;;;;;;-1.61;47.18;103500.15;1777181;80;26426;-58
2022/03/21 01:43:12;;;;;;;39.78;18.00;;;;;;;-1.61;47.18;103501.05;1771906;80;25758;-62
2022/03/21 01:45:39;;;;;;;46.90;18.35;;;;;;;-1.63;47.17;103497.97;1839140;77;27484;-57
2022/03/21 01:48:07;;;;;;;39.45;17.37;;;;;;;-1.65;47.14;103504.53;1828092;78;25956;-57
2022/03/21 01:50:37;;;;;;;36.42;17.52;;;;;;;-1.66;47.35;103505.84;1828264;77;25489;-57
2022/03/21 01:55:49;;;;;;;44.23;19.17;;;;;;;-1.71;47.83;103504.95;1828234;78;25484;-58
2022/03/21 01:58:17;;;;;;;35.95;17.60;;;;;;;-1.75;47.93;103510.64;1824975;78;28142;-57
2022/03/21 02:00:45;;;;;;;44.27;17.85;;;;;;;-1.82;47.98;103510.13;1816588;78;25588;-57
2022/03/21 02:03:14;;;;;;;38.28;19.40;;;;;;;-1.86;48.03;103509.67;1839546;77;25747;-57
2022/03/21 02:05:40;;;;;;;37.30;17.45;;;;;;;-1.87;48.18;103507.91;1839673;78;25732;-57
2022/03/21 02:08:07;;;;;;;37.00;16.67;;;;;;;-1.91;48.12;103512.28;1816098;78;25879;-57
2022/03/21 02:10:35;;;;;;;41.15;17.85;;;;;;;-1.93;48.26;103514.01;1839323;78;28176;-57
2022/03/21 02:13:02;;;;;;;38.42;18.10;;;;;;;-1.94;48.64;103516.20;1839300;78;25742;-57
2022/03/21 02:15:29;;;;;;;40.52;19.12;;;;;;;-1.97;48.47;103514.42;1839666;77;25664;-58
2022/03/21 02:18:00;;;;;;;38.90;18.73;;;;;;;-1.98;48.30;103510.02;1839458;78;25722;-58
2022/03/21 02:20:32;;;;;;;36.10;17.82;;;;;;;-1.97;48.19;103505.19;1839417;78;26177;-58
2022/03/21 02:23:30;;;;;;;38.98;18.87;;;;;;;-1.96;48.14;103502.10;1839397;77;27449;-58
2022/03/21 02:25:58;;;;;;;40.10;18.27;;;;;;;-1.97;48.29;103509.59;1839178;78;25717;-57
2022/03/21 02:28:26;;;;;;;35.63;17.15;;;;;;;-1.98;48.14;103506.51;1839408;77;25708;-57
2022/03/21 02:30:55;;;;;;;40.60;18.57;;;;;;;-2.00;48.18;103510.43;1839750;77;26280;-57
2022/03/21 02:33:24;;;;;;;34.90;16.90;;;;;;;-1.97;48.21;103506.51;1839246;77;25713;-57
2022/03/21 02:35:51;;;;;;;45.20;17.75;;;;;;;-1.98;48.09;103512.66;1839466;77;27461;-57
2022/03/21 02:38:19;;;;;;;37.38;17.75;;;;;;;-2.00;48.35;103506.92;1824027;78;25783;-57
2022/03/21 02:40:46;;;;;;;38.67;18.20;;;;;;;-2.03;48.33;103516.12;1822664;78;25722;-58
2022/03/21 02:43:13;;;;;;;35.13;17.45;;;;;;;-2.09;48.25;103516.95;1822737;78;25710;-57
2022/03/21 02:45:41;;;;;;;40.58;19.27;;;;;;;-2.17;48.90;103513.36;1823150;78;25508;-57
2022/03/21 02:48:09;;;;;;;38.65;18.00;;;;;;;-2.24;48.45;103515.95;1822967;78;27320;-57
2022/03/21 02:50:49;;;;;;;45.90;19.00;;;;;;;-2.27;48.71;103520.31;1823051;78;26166;-57
2022/03/21 02:53:19;;;;;;;42.08;19.37;;;;;;;-2.28;49.07;103516.77;1822517;78;25807;-58
2022/03/21 02:55:45;;;;;;;45.52;18.70;;;;;;;-2.27;48.89;103519.86;1823327;78;25433;-57
2022/03/21 02:58:12;;;;;;;41.80;17.17;;;;;;;-2.26;49.40;103513.72;1812578;78;25452;-57
2022/03/21 03:00:39;;;;;;;29.63;17.02;;;;;;;-2.26;49.49;103514.17;1804170;78;27492;-57
2022/03/21 03:03:06;;;;;;;39.58;17.73;;;;;;;-2.31;49.89;103517.19;1803656;78;25690;-58
2022/03/21 03:05:32;;;;;;;38.58;18.30;;;;;;;-2.33;49.75;103527.72;1798191;79;25690;-58
2022/03/21 03:07:59;;;;;;;40.23;19.35;;;;;;;-2.34;50.03;103518.49;1795127;78;25648;-58
2022/03/21 03:10:26;;;;;;;40.03;16.90;;;;;;;-2.37;50.09;103521.54;1795301;78;26180;-58
2022/03/21 03:12:53;;;;;;;49.80;18.77;;;;;;;-2.35;49.95;103526.81;1794959;78;27463;-58
2022/03/21 03:15:20;;;;;;;38.08;18.15;;;;;;;-2.36;50.02;103514.09;1795133;78;25750;-58
2022/03/21 03:17:46;;;;;;;34.27;17.85;;;;;;;-2.35;50.29;103513.63;1795246;78;25445;-58
2022/03/21 03:20:14;;;;;;;35.58;16.93;;;;;;;-2.41;50.12;103518.86;1795425;78;25697;-57
2022/03/21 03:22:42;;;;;;;39.48;19.48;;;;;;;-2.49;49.98;103520.53;1795265;78;25799;-57
2022/03/21 03:25:10;;;;;;;33.58;16.25;;;;;;;-2.53;50.16;103513.90;1809510;78;27482;-58
2022/03/21 03:27:37;;;;;;;31.17;17.45;;;;;;;-2.55;50.11;103516.08;1825975;78;25773;-58
2022/03/21 03:30:06;;;;;;;35.28;16.35;;;;;;;-2.59;50.37;103517.80;1826188;78;25762;-58
2022/03/21 03:32:34;;;;;;;38.20;16.75;;;;;;;-2.68;50.66;103520.33;1826181;78;25756;-58
2022/03/21 03:35:01;;;;;;;36.77;17.45;;;;;;;-2.70;50.49;103519.42;1826064;78;25781;-58
2022/03/21 03:37:28;;;;;;;38.92;18.40;;;;;;;-2.66;51.00;103519.92;1832688;77;27468;-59
2022/03/21 03:39:55;;;;;;;38.60;18.07;;;;;;;-2.64;51.02;103523.44;1845153;77;25701;-58
2022/03/21 03:42:21;;;;;;;36.23;16.97;;;;;;;-2.65;50.69;103515.52;1845366;77;25468;-58
2022/03/21 03:44:48;;;;;;;35.55;16.87;;;;;;;-2.67;50.67;103516.83;1845329;77;25790;-58
2022/03/21 03:47:16;;;;;;;49.42;18.12;;;;;;;-2.71;50.67;103515.92;1845231;77;25752;-59
2022/03/21 03:49:42;;;;;;;33.42;17.00;;;;;;;-2.73;50.88;103513.69;1844997;77;27455;-59
2022/03/21 03:52:09;;;;;;;33.33;16.73;;;;;;;-2.73;50.86;103518.06;1844842;77;25408;-58
2022/03/21 03:54:36;;;;;;;36.08;18.32;;;;;;;-2.75;51.00;103517.19;1845119;77;25393;-59
2022/03/21 03:57:05;;;;;;;40.25;19.75;;;;;;;-2.77;51.02;103514.95;1839475;77;25738;-58
2022/03/21 03:59:32;;;;;;;39.78;17.48;;;;;;;-2.79;50.94;103517.59;1810379;77;25682;-58
2022/03/21 04:01:59;;;;;;;37.08;17.27;;;;;;;-2.78;51.02;103521.95;1810142;79;27538;-59
2022/03/21 04:04:26;;;;;;;33.25;16.80;;;;;;;-2.84;51.17;103517.95;1810050;79;26254;-59
2022/03/21 04:06:53;;;;;;;34.60;17.02;;;;;;;-2.84;51.26;103507.41;1810065;79;25671;-59
2022/03/21 04:09:20;;;;;;;43.10;19.15;;;;;;;-2.86;51.27;103513.08;1810221;79;25627;-57
2022/03/21 04:11:46;;;;;;;48.40;18.70;;;;;;;-2.83;51.27;103513.12;1810178;79;25797;-58
2022/03/21 04:14:13;;;;;;;40.88;17.82;;;;;;;-2.81;51.29;103508.77;1810241;79;27502;-57
2022/03/21 04:16:44;;;;;;;42.00;19.10;;;;;;;-2.85;51.25;103510.91;1809852;79;25666;-57
2022/03/21 04:19:09;;;;;;;49.42;19.00;;;;;;;-2.85;51.25;103509.59;1809954;79;25687;-57
2022/03/21 04:21:36;;;;;;;49.65;17.87;;;;;;;-2.87;51.18;103512.21;1809912;79;25750;-59
2022/03/21 04:24:05;;;;;;;42.05;18.82;;;;;;;-2.87;51.17;103504.31;1810051;77;25789;-57
2022/03/21 04:26:32;;;;;;;35.50;19.12;;;;;;;-2.87;51.25;103512.21;1800388;78;27546;-56
2022/03/21 04:29:02;;;;;;;42.30;18.75;;;;;;;-2.89;51.28;103498.13;1800247;79;25683;-57
2022/03/21 04:31:28;;;;;;;53.50;19.75;;;;;;;-2.86;51.32;103506.08;1800025;78;25745;-57
2022/03/21 04:33:55;;;;;;;38.75;19.35;;;;;;;-2.84;51.23;103515.31;1800173;78;25721;-57
2022/03/21 04:36:22;;;;;;;33.18;17.70;;;;;;;-2.86;51.47;103510.03;1824087;77;25967;-57
2022/03/21 04:38:49;;;;;;;32.50;17.52;;;;;;;-2.89;51.77;103517.89;1833992;77;27581;-57
2022/03/21 04:41:16;;;;;;;38.58;18.50;;;;;;;-2.90;51.62;103515.25;1832521;77;25432;-57
2022/03/21 04:43:42;;;;;;;37.23;18.62;;;;;;;-2.88;51.78;103515.71;1829001;77;25787;-57
2022/03/21 04:46:09;;;;;;;40.58;17.85;;;;;;;-2.87;51.84;103514.84;1833505;77;25696;-57
2022/03/21 04:48:38;;;;;;;38.53;18.27;;;;;;;-2.84;52.00;103510.04;1834283;77;25768;-57
2022/03/21 04:51:05;;;;;;;41.92;19.07;;;;;;;-2.80;51.81;103510.95;1829753;77;27472;-57
2022/03/21 04:53:32;;;;;;;41.88;18.80;;;;;;;-2.76;51.86;103512.33;1834024;77;25916;-58
2022/03/21 04:55:59;;;;;;;45.63;18.65;;;;;;;-2.70;52.11;103514.16;1838650;77;25670;-58
2022/03/21 04:58:26;;;;;;;47.13;19.27;;;;;;;-2.66;52.18;103515.97;1835226;77;25800;-58
2022/03/21 05:00:53;;;;;;;45.78;19.50;;;;;;;-2.65;52.16;103519.06;1834423;77;25461;-58
2022/03/21 05:03:21;;;;;;;58.10;19.70;;;;;;;-2.61;52.30;103512.06;1836042;77;27456;-58
2022/03/21 05:05:48;;;;;;;65.67;20.17;;;;;;;-2.54;52.09;103520.03;1830760;77;25606;-58
2022/03/21 05:08:15;;;;;;;99.65;22.42;;;;;;;-2.53;51.83;103513.03;1839606;77;25665;-58
2022/03/21 05:10:42;;;;;;;52.25;20.15;;;;;;;-2.44;51.91;103516.18;1830400;77;25748;-59
2022/03/21 05:13:09;;;;;;;43.92;20.45;;;;;;;-2.39;52.19;103511.41;1825932;78;25663;-58
2022/03/21 05:15:36;;;;;;;51.05;21.62;;;;;;;-2.28;51.74;103519.41;1825949;78;27716;-58
2022/03/21 05:18:04;;;;;;;54.83;22.93;;;;;;;-2.17;51.64;103514.67;1833318;77;25673;-58
2022/03/21 05:20:31;;;;;;;49.10;22.42;;;;;;;-2.10;51.35;103518.72;1842436;77;25717;-58
2022/03/21 05:31:15;;;;;;;60.20;25.40;;;;;;;-1.80;50.71;103521.59;1845196;77;25796;-58
2022/03/21 05:36:27;;;;;;;48.15;23.65;;;;;;;-1.64;50.01;103522.59;1844902;77;25762;-57
2022/03/21 05:38:56;;;;;;;48.83;21.60;;;;;;;-1.57;49.73;103529.22;1845344;77;25745;-58
2022/03/21 05:41:23;;;;;;;51.58;23.52;;;;;;;-1.53;49.64;103526.61;1845557;77;27458;-58
2022/03/21 05:43:50;;;;;;;47.10;21.42;;;;;;;-1.46;49.46;103529.73;1831122;77;25712;-57
2022/03/21 05:46:18;;;;;;;51.45;21.50;;;;;;;-1.37;49.42;103535.07;1828066;77;25634;-58
2022/03/21 05:48:54;;;;;;;62.38;21.62;;;;;;;-1.30;49.14;103528.95;1828239;78;26124;-58
2022/03/21 05:51:33;;;;;;;45.63;19.42;;;;;;;-1.24;49.17;103528.55;1828481;77;25639;-58
2022/03/21 05:54:08;;;;;;;48.00;20.65;;;;;;;-1.20;48.88;103539.14;1828383;78;27337;-58
2022/03/21 05:56:36;;;;;;;63.83;22.93;;;;;;;-1.16;48.78;103537.40;1828542;78;26062;-59
2022/03/21 06:01:52;;;;;;;55.83;22.65;;;;;;;-0.92;48.76;103539.28;1793935;80;25766;-58
2022/03/21 06:04:23;;;;;;;41.70;21.25;;;;;;;-0.82;48.35;103542.83;1793931;80;25686;-58
2022/03/21 06:06:49;;;;;;;49.08;21.80;;;;;;;-0.76;47.87;103544.16;1793947;79;28227;-57
2022/03/21 06:09:15;;;;;;;46.88;21.25;;;;;;;-0.75;47.69;103538.45;1794386;79;25674;-57
2022/03/21 06:11:48;;;;;;;41.23;20.90;;;;;;;-0.70;47.61;103546.85;1793872;80;25797;-57
2022/03/21 06:14:11;;;;;;;49.50;21.62;;;;;;;-0.64;47.23;103543.35;1793501;79;25721;-58
2022/03/21 06:16:38;;;;;;;46.15;20.62;;;;;;;-0.62;46.80;103544.67;1793983;79;25786;-56
2022/03/21 06:19:04;;;;;;;50.00;19.42;;;;;;;-0.64;46.91;103553.92;1793962;80;27495;-58
2022/03/21 06:21:32;;;;;;;41.02;19.75;;;;;;;-0.61;46.93;103553.05;1793858;79;25779;-58
2022/03/21 06:23:58;;;;;;;42.00;19.48;;;;;;;-0.59;46.67;103555.27;1793904;79;25731;-57
2022/03/21 06:26:25;;;;;;;47.53;21.05;;;;;;;-0.56;46.55;103551.28;1827791;78;25749;-58
2022/03/21 06:28:52;;;;;;;59.23;21.02;;;;;;;-0.55;46.59;103548.67;1828278;78;25687;-58
2022/03/21 06:31:19;;;;;;;48.95;19.73;;;;;;;-0.50;46.58;103555.30;1828003;78;27468;-58
2022/03/21 06:33:45;;;;;;;41.85;19.35;;;;;;;-0.45;46.47;103546.92;1827817;78;25796;-58
2022/03/21 06:36:14;;;;;;;36.25;18.40;;;;;;;-0.38;46.28;103547.37;1828234;78;25753;-58
2022/03/21 06:38:41;;;;;;;41.88;19.15;;;;;;;-0.33;46.11;103552.25;1828948;78;25827;-58
2022/03/21 06:41:10;;;;;;;35.90;17.32;;;;;;;-0.26;46.16;103537.70;1843776;77;25785;-58
2022/03/21 06:43:36;;;;;;;49.60;23.25;;;;;;;-0.19;46.04;103536.39;1839527;77;27034;-58
2022/03/21 06:46:05;;;;;;;39.10;19.35;;;;;;;-0.06;45.79;103539.03;1837467;77;26461;-58
2022/03/21 06:48:33;;;;;;;57.15;22.77;;;;;;;-0.01;45.54;103535.52;1836022;77;25709;-56
2022/03/21 06:50:59;;;;;;;44.63;17.98;;;;;;;0.08;45.63;103535.07;1834335;77;25774;-58
2022/03/21 06:53:26;;;;;;;41.90;18.62;;;;;;;0.15;45.61;103521.84;1834069;77;25690;-57
2022/03/21 06:55:53;;;;;;;48.75;18.75;;;;;;;0.24;45.45;103527.56;1837237;77;27548;-56
2022/03/21 06:58:20;;;;;;;41.60;18.37;;;;;;;0.30;45.41;103532.88;1834993;77;25775;-56
2022/03/21 07:00:48;;;;;;;39.40;19.35;;;;;;;0.38;45.43;103534.63;1838153;77;26100;-57
2022/03/21 07:03:16;;;;;;;50.20;18.35;;;;;;;0.46;45.33;103532.84;1837588;77;25686;-57
2022/03/21 07:05:44;;;;;;;51.20;19.50;;;;;;;0.55;45.21;103526.62;1836015;77;25859;-57
2022/03/21 07:08:12;;;;;;;37.40;18.10;;;;;;;0.65;45.17;103520.42;1833228;77;28105;-57
2022/03/21 07:10:44;;;;;;;41.85;19.73;;;;;;;0.75;45.09;103517.33;1831200;77;25785;-57
2022/03/21 07:13:11;;;;;;;42.73;18.98;;;;;;;0.87;44.73;103517.27;1826120;77;25694;-58
2022/03/21 07:15:38;;;;;;;43.78;19.57;;;;;;;0.96;44.66;103520.34;1830864;77;25787;-58
2022/03/21 07:18:05;;;;;;;50.00;20.08;;;;;;;1.07;44.68;103519.86;1834782;77;25936;-57
2022/03/21 07:20:32;;;;;;;38.42;18.92;;;;;;;1.19;44.66;103503.44;1837198;77;28231;-57
2022/03/21 07:23:00;;;;;;;39.42;19.07;;;;;;;1.29;44.45;103508.27;1815820;77;25788;-57
2022/03/21 07:25:27;;;;;;;39.55;18.65;;;;;;;1.41;44.42;103497.56;1829483;77;25746;-58
2022/03/21 07:27:55;;;;;;;49.20;21.25;;;;;;;1.53;43.87;103497.92;1832623;77;25959;-58
2022/03/21 07:30:22;;;;;;;36.93;18.40;;;;;;;1.66;43.71;103490.33;1843715;77;25722;-58
2022/03/21 07:32:49;;;;;;;41.37;16.77;;;;;;;1.78;43.85;103494.66;1845019;77;27428;-57
2022/03/21 07:35:16;;;;;;;41.23;19.82;;;;;;;1.92;43.58;103493.69;1843320;77;25628;-57
2022/03/21 07:37:47;;;;;;;45.92;21.65;;;;;;;2.07;43.48;103488.23;1845164;77;25713;-58
2022/03/21 07:40:14;;;;;;;46.02;21.00;;;;;;;2.19;43.39;103490.78;1830143;77;25494;-58
2022/03/21 07:42:44;;;;;;;44.55;19.55;;;;;;;2.33;42.94;103496.39;1823273;78;25805;-58
2022/03/21 07:47:59;;;;;;;41.92;20.57;;;;;;;2.62;42.47;103493.88;1823096;78;25786;-58
2022/03/21 07:50:27;;;;;;;48.23;20.17;;;;;;;2.79;42.33;103495.00;1823375;78;26115;-58
2022/03/21 07:52:57;;;;;;;39.05;19.45;;;;;;;2.92;42.00;103485.09;1823207;78;25789;-58
2022/03/21 07:55:25;;;;;;;44.03;19.35;;;;;;;3.06;41.86;103476.94;1823354;77;25697;-58
2022/03/21 07:57:52;;;;;;;39.30;18.60;;;;;;;3.25;41.68;103481.10;1818762;78;27524;-58
2022/03/21 08:00:19;;;;;;;36.75;18.00;;;;;;;3.43;41.19;103477.74;1809234;79;25489;-58
2022/03/21 08:02:46;;;;;;;43.17;18.80;;;;;;;3.59;41.03;103475.27;1795216;79;25667;-58
2022/03/21 08:05:14;;;;;;;38.42;18.50;;;;;;;3.76;40.43;103463.03;1795196;79;26787;-57
2022/03/21 08:07:42;;;;;;;41.45;18.90;;;;;;;3.95;40.31;103465.38;1795266;79;25755;-57
2022/03/21 08:10:11;;;;;;;35.23;17.02;;;;;;;4.13;40.09;103468.62;1795440;79;27627;-58
2022/03/21 08:12:42;;;;;;;36.50;16.00;;;;;;;4.30;39.00;103464.33;1795055;78;25893;-56
2022/03/21 08:15:17;;;;;;;38.23;16.27;;;;;;;4.48;37.85;103473.28;1795360;79;26420;-58
2022/03/21 08:18:00;;;;;;;36.25;15.88;;;;;;;4.69;37.72;103457.33;1794390;79;25750;-58
2022/03/21 08:20:35;;;;;;;33.83;16.52;;;;;;;4.91;37.76;103450.19;1795098;78;25814;-58
2022/03/21 08:23:06;;;;;;;41.77;16.17;;;;;;;5.14;37.15;103447.48;1795181;79;28284;-58
2022/03/21 08:25:38;;;;;;;33.98;16.25;;;;;;;5.37;35.93;103435.38;1809346;78;25852;-58
2022/03/21 08:28:08;;;;;;;30.08;15.65;;;;;;;5.55;36.08;103440.75;1822304;78;25727;-58
2022/03/21 08:30:37;;;;;;;31.65;14.75;;;;;;;5.82;36.30;103440.50;1807991;77;26769;-57
2022/03/21 08:33:07;;;;;;;35.28;15.48;;;;;;;6.05;35.60;103444.42;1815297;78;25627;-58
2022/03/21 08:35:37;;;;;;;42.20;16.60;;;;;;;6.23;35.63;103441.22;1822456;77;27416;-57
2022/03/21 08:38:07;;;;;;;32.10;15.48;;;;;;;6.38;34.19;103425.22;1818698;78;25790;-57
2022/03/21 08:40:36;;;;;;;39.83;15.70;;;;;;;6.50;33.99;103428.00;1809029;78;25719;-58
2022/03/21 08:43:04;;;;;;;28.70;14.05;;;;;;;6.66;33.78;103424.42;1815734;78;26645;-57
2022/03/21 08:45:30;;;;;;;32.38;15.40;;;;;;;6.88;34.02;103412.61;1820044;78;25758;-57
2022/03/21 08:47:57;;;;;;;31.40;15.72;;;;;;;7.11;34.04;103412.38;1820969;78;28272;-58
2022/03/21 08:50:24;;;;;;;32.53;16.40;;;;;;;7.38;33.44;103410.18;1804289;77;25694;-58
2022/03/21 08:52:51;;;;;;;31.80;15.72;;;;;;;7.57;32.75;103408.65;1793579;80;25738;-56
2022/03/21 08:55:18;;;;;;;31.85;16.20;;;;;;;7.75;32.22;103403.14;1793547;80;26738;-57
2022/03/21 08:57:45;;;;;;;33.25;16.15;;;;;;;7.95;32.67;103390.83;1798722;78;25767;-57
2022/03/21 09:04:08;;;;;;;40.50;15.98;;;;;;;8.30;31.54;103385.98;1779870;77;25727;-58
2022/03/21 09:06:35;;;;;;;43.98;18.82;;;;;;;8.60;31.01;103377.75;1771162;80;25685;-58
2022/03/21 09:09:02;;;;;;;35.48;17.45;;;;;;;8.93;30.69;103367.95;1771041;80;25792;-58
2022/03/21 09:11:29;;;;;;;29.18;16.30;;;;;;;9.23;30.90;103360.94;1778153;77;25465;-57
2022/03/21 09:13:56;;;;;;;32.73;16.37;;;;;;;9.57;31.00;103351.45;1796077;77;27473;-58
2022/03/21 09:16:23;;;;;;;24.50;14.13;;;;;;;9.94;31.19;103360.59;1792892;80;27286;-57
2022/03/21 09:18:51;;;;;;;32.03;15.53;;;;;;;10.30;29.22;103353.62;1796153;78;25783;-57
2022/03/21 09:21:18;;;;;;;36.40;14.75;;;;;;;10.65;29.27;103341.22;1792904;80;25753;-58
2022/03/21 09:23:44;;;;;;;29.50;14.63;;;;;;;11.03;28.90;103337.59;1777844;77;25692;-58
2022/03/21 09:26:11;;;;;;;34.08;16.25;;;;;;;11.40;28.35;103333.53;1794669;78;28342;-57
2022/03/21 09:28:44;;;;;;;33.05;16.02;;;;;;;11.88;28.21;103334.59;1822794;78;25634;-59
2022/03/21 09:31:13;;;;;;;28.38;16.37;;;;;;;12.39;27.50;103328.32;1822963;77;25725;-58
2022/03/21 09:33:41;;;;;;;29.48;14.50;;;;;;;12.94;26.69;103324.80;1819486;77;25765;-57
2022/03/21 09:36:09;;;;;;;31.42;14.73;;;;;;;13.61;25.69;103317.23;1790704;80;25780;-58
2022/03/21 09:38:37;;;;;;;30.32;15.20;;;;;;;14.27;23.95;103311.36;1790911;79;28136;-57
2022/03/21 09:41:04;;;;;;;41.08;14.98;;;;;;;14.94;22.53;103313.84;1768977;79;25735;-59
2022/03/21 09:43:32;;;;;;;25.40;14.83;;;;;;;15.51;22.98;103303.69;1757829;80;25722;-58
2022/03/21 09:45:59;;;;;;;26.30;13.95;;;;;;;16.17;22.43;103306.29;1757724;81;25799;-58
2022/03/21 09:48:28;;;;;;;28.45;12.53;;;;;;;16.92;22.59;103302.58;1757743;80;25713;-57
2022/03/21 09:50:56;;;;;;;19.80;11.38;;;;;;;17.43;21.42;103291.03;1757987;80;27232;-58
2022/03/21 09:53:25;;;;;;;20.70;12.05;;;;;;;17.98;20.50;103287.16;1757607;80;25659;-58
2022/03/21 09:55:52;;;;;;;23.55;11.15;;;;;;;18.24;19.73;103284.20;1757869;80;25843;-58
2022/03/21 09:58:20;;;;;;;18.30;10.35;;;;;;;18.77;20.14;103278.00;1779283;79;25793;-58
2022/03/21 10:00:52;;;;;;;19.37;10.23;;;;;;;19.39;19.77;103276.38;1789116;79;26172;-59
2022/03/21 10:03:20;;;;;;;26.33;8.45;;;;;;;19.94;18.76;103275.27;1789009;79;28374;-58
2022/03/21 10:05:49;;;;;;;18.70;9.73;;;;;;;20.36;18.65;103274.73;1788795;79;25499;-58
2022/03/21 10:08:22;;;;;;;19.32;7.92;;;;;;;20.90;16.64;103266.56;1789048;80;25749;-58
2022/03/21 10:11:01;;;;;;;20.17;7.40;;;;;;;21.05;16.06;103258.78;1788944;79;25985;-58
2022/03/21 10:13:36;;;;;;;12.18;7.62;;;;;;;21.32;14.99;103253.55;1777189;80;25705;-57
2022/03/21 10:16:22;;;;;;;24.90;6.10;;;;;;;21.30;15.97;103256.44;1765015;80;28253;-58
2022/03/21 10:18:58;;;;;;;19.23;7.60;;;;;;;21.77;14.43;103252.86;1762335;80;25781;-57
2022/03/21 10:21:29;;;;;;;21.40;8.05;;;;;;;21.89;14.82;103253.04;1749917;80;25819;-58
2022/03/21 10:24:07;;;;;;;14.87;8.30;;;;;;;22.28;14.64;103243.73;1750248;80;25782;-58
2022/03/21 10:26:41;;;;;;;20.77;8.55;;;;;;;22.43;15.13;103242.73;1757907;81;25486;-58
2022/03/21 10:29:11;;;;;;;39.25;11.28;;;;;;;22.79;15.03;103248.23;1757622;81;27454;-58
2022/03/21 10:31:46;;;;;;;20.72;9.18;;;;;;;23.26;12.94;103238.00;1757908;81;25921;-59
2022/03/21 10:34:17;;;;;;;16.45;8.85;;;;;;;22.74;14.15;103232.73;1757638;81;25716;-58
2022/03/21 10:37:05;;;;;;;16.25;9.03;;;;;;;22.92;14.49;103224.99;1757463;81;25781;-58
2022/03/21 10:39:38;;;;;;;15.28;9.00;;;;;;;23.26;14.49;103213.29;1757959;81;25749;-58
2022/03/21 10:42:09;;;;;;;17.42;9.30;;;;;;;23.40;14.14;103225.04;1762612;81;27466;-59
2022/03/21 10:44:37;;;;;;;14.30;9.25;;;;;;;23.57;13.53;103221.89;1760695;81;25777;-59
2022/03/21 10:47:09;;;;;;;20.43;9.43;;;;;;;23.59;13.99;103209.34;1772712;80;25679;-57
2022/03/21 10:49:41;;;;;;;28.12;9.08;;;;;;;23.79;14.42;103205.83;1773050;80;25762;-57
2022/03/21 10:52:08;;;;;;;19.15;8.75;;;;;;;23.90;13.81;103198.66;1735454;82;25470;-58
2022/03/21 10:54:48;;;;;;;16.93;8.40;;;;;;;23.21;13.15;103197.79;1714698;82;27485;-58
2022/03/21 10:57:36;;;;;;;16.70;9.10;;;;;;;21.96;13.67;103197.61;1742065;80;25778;-58
2022/03/21 11:00:26;;;;;;;20.70;9.38;;;;;;;21.02;14.46;103187.06;1804528;79;25816;-58
2022/03/21 11:03:18;;;;;;;21.55;9.58;;;;;;;21.03;14.97;103187.40;1799703;79;25755;-59
2022/03/21 11:05:49;;;;;;;19.23;9.60;;;;;;;21.22;14.21;103188.73;1771842;80;25503;-57
2022/03/21 11:08:19;;;;;;;17.32;10.18;;;;;;;20.53;14.92;103175.62;1772924;80;28125;-58
2022/03/21 11:10:47;;;;;;;14.15;8.25;;;;;;;20.63;14.85;103168.77;1773089;80;25607;-58
2022/03/21 11:13:14;;;;;;;15.98;8.28;;;;;;;21.18;14.35;103156.33;1772848;79;25750;-58
2022/03/21 11:15:41;;;;;;;13.40;9.00;;;;;;;21.43;14.44;103152.06;1772765;79;25798;-57
2022/03/21 11:18:09;;;;;;;18.65;8.70;;;;;;;21.89;14.71;103148.91;1772700;79;25912;-58
2022/03/21 11:20:37;;;;;;;10.23;7.40;;;;;;;22.76;14.34;103137.93;1773128;80;27432;-58
2022/03/21 11:23:04;;;;;;;11.75;7.55;;;;;;;23.11;13.97;103128.72;1772594;79;25775;-58
2022/03/21 11:25:35;;;;;;;12.23;7.28;;;;;;;23.66;13.83;103120.26;1793006;79;25729;-58
2022/03/21 11:28:28;;;;;;;11.12;7.35;;;;;;;24.06;12.86;103115.91;1804595;79;25779;-58
2022/03/21 11:31:23;;;;;;;21.02;7.55;;;;;;;23.96;13.35;103102.33;1794938;79;25642;-59
2022/03/21 11:34:37;;;;;;;11.75;6.97;;;;;;;24.13;12.42;103092.73;1804859;79;27648;-58
2022/03/21 11:37:04;;;;;;;19.57;6.90;;;;;;;23.77;12.39;103096.57;1804356;79;25983;-57
2022/03/21 11:39:33;;;;;;;14.65;5.00;;;;;;;23.56;12.55;103091.53;1804805;79;25489;-57
2022/03/21 11:42:07;;;;;;;17.35;5.53;;;;;;;23.47;12.54;103098.90;1832826;77;25807;-58
2022/03/21 11:44:33;;;;;;;12.00;5.03;;;;;;;23.34;12.02;103089.75;1828426;77;25457;-58
2022/03/21 11:47:28;;;;;;;7.70;4.97;;;;;;;22.87;12.46;103088.78;1828231;78;29699;-58